createdAt,value
2023-08-28T00:00:33.346Z,12.48
2023-08-28T00:03:01.036Z,10.90
2023-08-28T00:05:32.554Z,15.35
2023-08-28T00:07:59.849Z,12.70
2023-08-28T00:10:27.169Z,14.25
2023-08-28T00:12:54.837Z,13.93
2023-08-28T00:15:22.188Z,14.20
2023-08-28T00:17:49.873Z,11.75
2023-08-28T00:20:17.438Z,12.07
2023-08-28T00:22:44.751Z,11.45
2023-08-28T00:25:12.742Z,14.20
2023-08-28T00:27:40.346Z,12.98
2023-08-28T00:30:08.913Z,10.23
2023-08-28T00:32:36.415Z,11.48
2023-08-28T00:35:03.983Z,15.00
2023-08-28T00:37:32.191Z,13.15
2023-08-28T00:40:00.043Z,12.60
2023-08-28T00:42:29.815Z,14.52
2023-08-28T00:44:57.426Z,13.85
2023-08-28T00:47:25.872Z,13.20
2023-08-28T00:49:53.352Z,13.93
2023-08-28T00:52:21.093Z,12.77
2023-08-28T00:54:49.117Z,11.60
2023-08-28T00:57:19.492Z,13.95
2023-08-28T00:59:47.532Z,16.90
2023-08-28T01:02:14.843Z,15.13
2023-08-28T01:04:42.160Z,12.20
2023-08-28T01:07:12.776Z,14.15
2023-08-28T01:09:52.006Z,14.45
2023-08-28T01:12:29.891Z,14.88
2023-08-28T01:14:57.100Z,18.02
2023-08-28T01:17:25.638Z,13.98
2023-08-28T01:19:53.408Z,13.88
2023-08-28T01:22:50.004Z,12.38
2023-08-28T01:25:18.795Z,14.85
2023-08-28T01:27:48.054Z,13.27
2023-08-28T01:30:18.504Z,15.82
2023-08-28T01:32:47.182Z,16.50
2023-08-28T01:35:25.900Z,15.52
2023-08-28T01:38:09.314Z,13.77
2023-08-28T01:40:42.226Z,16.40
2023-08-28T01:43:12.564Z,15.23
2023-08-28T01:45:40.494Z,14.13
2023-08-28T01:48:08.432Z,17.30
2023-08-28T01:50:35.831Z,15.27
2023-08-28T01:53:03.387Z,19.10
2023-08-28T01:55:49.691Z,14.35
2023-08-28T01:58:17.274Z,15.25
2023-08-28T02:00:44.629Z,13.50
2023-08-28T02:03:12.350Z,15.95
2023-08-28T02:05:40.377Z,18.43
2023-08-28T02:08:09.014Z,14.93
2023-08-28T02:10:36.381Z,13.85
2023-08-28T02:13:05.348Z,12.57
2023-08-28T02:15:32.881Z,14.23
2023-08-28T02:18:03.360Z,18.38
2023-08-28T02:20:35.065Z,14.23
2023-08-28T02:23:04.897Z,14.07
2023-08-28T02:25:34.739Z,14.50
2023-08-28T02:28:04.703Z,15.20
2023-08-28T02:30:35.428Z,14.18
2023-08-28T02:33:04.424Z,15.25
2023-08-28T02:35:32.693Z,13.68
2023-08-28T02:38:00.230Z,13.90
2023-08-28T02:40:27.962Z,14.30
2023-08-28T02:42:56.715Z,15.02
2023-08-28T02:45:24.030Z,14.15
2023-08-28T02:47:53.155Z,13.23
2023-08-28T02:50:20.483Z,12.68
2023-08-28T02:52:47.927Z,12.45
2023-08-28T02:55:15.207Z,14.20
2023-08-28T02:57:42.439Z,13.18
2023-08-28T03:00:10.107Z,13.57
2023-08-28T03:02:37.499Z,13.45
2023-08-28T03:05:05.150Z,16.02
2023-08-28T03:07:32.540Z,18.02
2023-08-28T03:10:00.155Z,16.05
2023-08-28T03:12:27.512Z,18.05
2023-08-28T03:14:54.818Z,16.60
2023-08-28T03:17:22.296Z,18.30
2023-08-28T03:19:50.043Z,15.43
2023-08-28T03:22:17.405Z,16.20
2023-08-28T03:24:44.672Z,17.50
2023-08-28T03:27:12.255Z,17.98
2023-08-28T03:29:39.572Z,16.55
2023-08-28T03:32:07.032Z,22.83
2023-08-28T03:34:34.513Z,17.90
2023-08-28T03:37:02.117Z,16.83
2023-08-28T03:39:29.396Z,21.38
2023-08-28T03:41:56.760Z,17.60
2023-08-28T03:44:24.274Z,19.33
2023-08-28T03:46:51.603Z,18.80
2023-08-28T03:49:18.996Z,17.83
2023-08-28T03:51:46.343Z,14.98
2023-08-28T03:54:14.739Z,15.45
2023-08-28T03:56:42.738Z,24.80
2023-08-28T03:59:10.982Z,15.97
2023-08-28T04:01:40.038Z,17.50
2023-08-28T04:04:07.486Z,15.57
2023-08-28T04:06:34.904Z,15.70
2023-08-28T04:09:02.193Z,15.38
2023-08-28T04:11:29.495Z,13.73
2023-08-28T04:13:56.780Z,17.48
2023-08-28T04:16:24.164Z,19.48
2023-08-28T04:18:51.486Z,14.18
2023-08-28T04:21:19.092Z,22.13
2023-08-28T04:23:46.373Z,14.48
2023-08-28T04:26:13.739Z,13.75
2023-08-28T04:28:42.570Z,14.80
2023-08-28T04:31:12.380Z,13.35
2023-08-28T04:33:42.978Z,16.20
2023-08-28T04:36:15.683Z,16.42
2023-08-28T04:38:44.864Z,14.25
2023-08-28T04:41:14.171Z,16.63
2023-08-28T04:43:42.048Z,13.85
2023-08-28T04:46:09.405Z,13.77
2023-08-28T04:48:36.736Z,12.90
2023-08-28T04:51:06.048Z,15.65
2023-08-28T04:53:33.422Z,14.55
2023-08-28T04:56:00.691Z,15.27
2023-08-28T04:58:29.937Z,13.20
2023-08-28T05:00:57.656Z,13.45
2023-08-28T05:03:25.071Z,13.50
2023-08-28T05:05:53.943Z,13.05
2023-08-28T05:08:21.217Z,11.20
2023-08-28T05:10:48.528Z,13.73
2023-08-28T05:13:15.831Z,12.68
2023-08-28T05:15:43.220Z,13.02
2023-08-28T05:18:13.014Z,16.00
2023-08-28T05:20:41.081Z,15.43
2023-08-28T05:23:08.517Z,12.68
2023-08-28T05:25:35.821Z,13.98
2023-08-28T05:28:03.216Z,13.27
2023-08-28T05:30:30.534Z,15.82
2023-08-28T05:32:57.911Z,16.20
2023-08-28T05:35:25.351Z,16.65
2023-08-28T05:37:52.845Z,17.98
2023-08-28T05:40:20.164Z,19.05
2023-08-28T05:42:48.132Z,17.58
2023-08-28T05:45:15.504Z,16.83
2023-08-28T05:47:42.903Z,18.23
2023-08-28T05:50:10.457Z,21.95
2023-08-28T05:52:39.233Z,20.60
2023-08-28T05:55:07.097Z,19.00
2023-08-28T05:57:35.828Z,22.20
2023-08-28T06:00:04.270Z,24.00
2023-08-28T06:02:39.808Z,21.25
2023-08-28T06:05:07.588Z,22.52
2023-08-28T06:07:34.832Z,21.05
2023-08-28T06:12:31.227Z,25.73
2023-08-28T06:14:58.654Z,22.85
2023-08-28T06:17:26.079Z,22.45
2023-08-28T06:19:53.383Z,24.10
2023-08-28T06:22:20.794Z,27.15
2023-08-28T06:24:53.602Z,23.23
2023-08-28T06:27:21.290Z,23.10
2023-08-28T06:29:48.692Z,25.42
2023-08-28T06:32:16.233Z,31.10
2023-08-28T06:34:43.536Z,26.13
2023-08-28T06:37:10.986Z,19.95
2023-08-28T06:39:38.345Z,24.42
2023-08-28T06:42:05.808Z,23.80
2023-08-28T06:44:36.006Z,19.83
2023-08-28T06:47:03.971Z,19.45
2023-08-28T06:49:31.639Z,23.37
2023-08-28T06:51:58.943Z,29.38
2023-08-28T06:54:29.767Z,22.05
2023-08-28T06:57:04.148Z,19.45
2023-08-28T06:59:31.472Z,20.77
2023-08-28T07:01:58.780Z,16.63
2023-08-28T07:04:26.109Z,16.40
2023-08-28T07:06:53.435Z,14.20
2023-08-28T07:09:20.784Z,14.45
2023-08-28T07:11:48.200Z,16.65
2023-08-28T07:14:15.722Z,15.93
2023-08-28T07:16:43.129Z,16.20
2023-08-28T07:19:10.494Z,13.63
2023-08-28T07:21:37.753Z,13.02
2023-08-28T07:24:05.256Z,16.50
2023-08-28T07:26:33.612Z,11.23
2023-08-28T07:29:01.075Z,12.40
2023-08-28T07:31:28.389Z,11.65
2023-08-28T07:33:56.220Z,10.77
2023-08-28T07:36:24.930Z,7.75
2023-08-28T07:38:52.566Z,6.60
2023-08-28T07:41:21.217Z,4.68
2023-08-28T07:43:49.003Z,4.78
2023-08-28T07:46:16.400Z,4.82
2023-08-28T07:48:43.769Z,3.92
2023-08-28T07:51:11.426Z,3.70
2023-08-28T07:53:41.077Z,4.30
2023-08-28T07:56:08.424Z,2.53
2023-08-28T07:58:35.935Z,5.30
2023-08-28T08:01:03.282Z,3.63
2023-08-28T08:03:31.130Z,6.75
2023-08-28T08:05:58.432Z,4.32
2023-08-28T08:08:25.697Z,4.70
2023-08-28T08:10:52.985Z,3.22
2023-08-28T08:13:20.267Z,3.67
2023-08-28T08:15:47.540Z,3.42
2023-08-28T08:18:14.897Z,3.05
2023-08-28T08:20:42.187Z,4.18
2023-08-28T08:23:09.483Z,4.78
2023-08-28T08:25:36.824Z,4.32
2023-08-28T08:28:04.372Z,5.00
2023-08-28T08:30:31.882Z,6.35
2023-08-28T08:32:59.386Z,5.90
2023-08-28T08:35:26.734Z,6.47
2023-08-28T08:37:54.382Z,4.45
2023-08-28T08:40:25.987Z,5.47
2023-08-28T08:42:53.930Z,5.95
2023-08-28T08:45:23.059Z,4.72
2023-08-28T08:47:52.322Z,5.40
2023-08-28T08:50:20.913Z,5.03
2023-08-28T08:52:49.567Z,5.18
2023-08-28T08:55:25.888Z,8.15
2023-08-28T08:57:56.600Z,5.13
2023-08-28T09:00:24.266Z,4.45
2023-08-28T09:02:54.043Z,4.47
2023-08-28T09:05:23.595Z,4.15
2023-08-28T09:07:53.970Z,3.58
2023-08-28T09:10:21.568Z,5.22
2023-08-28T09:12:50.824Z,4.65
2023-08-28T09:15:19.206Z,5.63
2023-08-28T09:17:46.741Z,6.43
2023-08-28T09:20:18.248Z,4.03
2023-08-28T09:22:53.171Z,4.18
2023-08-28T09:25:22.874Z,4.38
2023-08-28T09:27:50.796Z,4.20
2023-08-28T09:30:37.254Z,2.65
2023-08-28T09:33:09.845Z,3.80
2023-08-28T09:35:39.135Z,3.53
2023-08-28T09:38:10.844Z,4.40
2023-08-28T09:40:40.772Z,4.93
2023-08-28T09:43:15.002Z,4.15
2023-08-28T09:45:43.476Z,3.85
2023-08-28T09:48:12.053Z,3.10
2023-08-28T09:50:40.892Z,3.57
2023-08-28T09:55:55.795Z,3.83
2023-08-28T09:58:26.995Z,3.38
2023-08-28T10:00:57.076Z,3.60
2023-08-28T10:03:25.847Z,2.97
2023-08-28T10:05:55.723Z,3.30
2023-08-28T10:08:28.810Z,4.38
2023-08-28T10:10:57.666Z,5.55
2023-08-28T10:15:58.644Z,2.72
2023-08-28T10:18:37.977Z,2.28
2023-08-28T10:21:07.090Z,3.75
2023-08-28T10:23:35.988Z,4.22
2023-08-28T10:28:30.770Z,2.83
2023-08-28T10:31:00.087Z,2.72
2023-08-28T10:33:27.843Z,2.65
2023-08-28T10:35:55.951Z,2.55
2023-08-28T10:38:23.851Z,3.70
2023-08-28T10:40:53.038Z,4.75
2023-08-28T10:43:25.274Z,3.20
2023-08-28T10:45:53.933Z,2.75
2023-08-28T10:48:22.078Z,1.88
2023-08-28T10:50:49.728Z,3.58
2023-08-28T10:53:17.490Z,2.20
2023-08-28T10:56:03.907Z,1.20
2023-08-28T10:58:31.959Z,3.45
2023-08-28T11:01:16.764Z,3.63
2023-08-28T11:03:54.368Z,2.55
2023-08-28T11:06:46.692Z,2.30
2023-08-28T11:09:30.174Z,1.38
2023-08-28T11:12:10.395Z,1.73
2023-08-28T11:14:53.386Z,1.35
2023-08-28T11:17:27.737Z,1.73
2023-08-28T11:20:02.035Z,4.20
2023-08-28T11:22:35.891Z,2.08
2023-08-28T11:25:16.292Z,1.80
2023-08-28T11:27:54.566Z,5.13
2023-08-28T11:30:23.723Z,1.77
2023-08-28T11:32:52.847Z,1.75
2023-08-28T11:35:21.062Z,2.08
2023-08-28T11:37:49.283Z,1.88
2023-08-28T11:40:20.813Z,1.67
2023-08-28T11:42:49.025Z,3.60
2023-08-28T11:45:34.928Z,3.40
2023-08-28T11:48:02.758Z,1.63
2023-08-28T11:50:30.183Z,1.80
2023-08-28T11:52:57.530Z,6.30
2023-08-28T11:55:25.283Z,1.25
2023-08-28T11:57:53.016Z,1.95
2023-08-28T12:00:22.389Z,2.03
2023-08-28T12:05:18.008Z,3.47
2023-08-28T12:07:46.021Z,1.85
2023-08-28T12:10:14.263Z,1.52
2023-08-28T12:12:42.213Z,1.92
2023-08-28T12:15:09.840Z,2.15
2023-08-28T12:17:37.881Z,2.38
2023-08-28T12:20:07.809Z,1.50
2023-08-28T12:22:43.271Z,1.55
2023-08-28T12:25:10.588Z,1.50
2023-08-28T12:27:39.251Z,1.55
2023-08-28T12:32:34.188Z,2.17
2023-08-28T12:35:28.245Z,1.80
2023-08-28T12:37:56.188Z,3.08
2023-08-28T12:40:23.432Z,1.27
2023-08-28T12:42:56.292Z,2.63
2023-08-28T12:45:25.222Z,2.90
2023-08-28T12:47:52.774Z,1.23
2023-08-28T12:50:24.153Z,2.42
2023-08-28T12:52:52.081Z,3.75
2023-08-28T12:55:19.509Z,1.92
2023-08-28T12:57:46.821Z,3.38
2023-08-28T13:00:14.399Z,2.78
2023-08-28T13:02:41.722Z,2.85
2023-08-28T13:05:09.151Z,2.97
2023-08-28T13:07:42.973Z,3.20
2023-08-28T13:10:14.814Z,2.50
2023-08-28T13:12:42.096Z,3.60
2023-08-28T13:15:09.622Z,1.92
2023-08-28T13:17:44.197Z,1.98
2023-08-28T13:20:26.394Z,1.60
2023-08-28T13:23:15.357Z,2.40
2023-08-28T13:28:10.651Z,2.00
2023-08-28T13:30:39.215Z,1.67
2023-08-28T13:35:34.458Z,1.42
2023-08-28T13:38:02.129Z,2.60
2023-08-28T13:40:29.656Z,2.30
2023-08-28T13:42:57.194Z,2.53
2023-08-28T13:45:24.581Z,3.03
2023-08-28T13:47:51.935Z,3.00
2023-08-28T13:50:19.453Z,3.78
2023-08-28T13:52:47.407Z,3.25
2023-08-28T13:55:14.784Z,2.10
2023-08-28T13:57:42.206Z,1.80
2023-08-28T14:00:13.201Z,2.78
2023-08-28T14:02:47.624Z,2.45
2023-08-28T14:05:15.490Z,5.88
2023-08-28T14:07:43.401Z,2.10
2023-08-28T14:10:11.693Z,6.65
2023-08-28T14:12:39.234Z,3.58
2023-08-28T14:15:07.612Z,4.53
2023-08-28T14:17:35.038Z,4.53
2023-08-28T14:20:02.991Z,3.40
2023-08-28T14:22:30.611Z,2.28
2023-08-28T14:24:57.896Z,5.10
2023-08-28T14:27:27.850Z,4.85
2023-08-28T14:30:02.839Z,4.40
2023-08-28T14:32:30.372Z,3.92
2023-08-28T14:34:57.736Z,3.05
2023-08-28T14:37:25.041Z,4.47
2023-08-28T14:39:52.463Z,2.00
2023-08-28T14:42:19.851Z,2.47
2023-08-28T14:44:47.176Z,3.95
2023-08-28T14:47:14.497Z,2.10
2023-08-28T14:49:42.648Z,0.98
2023-08-28T14:52:10.638Z,2.10
2023-08-28T14:54:37.910Z,1.85
2023-08-28T14:57:05.465Z,2.55
2023-08-28T14:59:32.744Z,6.72
2023-08-28T15:02:00.048Z,3.33
2023-08-28T15:04:27.438Z,2.78
2023-08-28T15:06:55.078Z,2.33
2023-08-28T15:09:23.846Z,1.08
2023-08-28T15:11:51.198Z,2.78
2023-08-28T15:14:18.488Z,2.50
2023-08-28T15:16:45.924Z,1.55
2023-08-28T15:19:13.297Z,3.17
2023-08-28T15:21:40.587Z,2.20
2023-08-28T15:24:07.995Z,2.70
2023-08-28T15:26:35.304Z,2.08
2023-08-28T15:29:02.732Z,2.28
2023-08-28T15:31:30.080Z,1.90
2023-08-28T15:33:57.392Z,2.30
2023-08-28T15:36:24.705Z,2.80
2023-08-28T15:38:51.951Z,4.10
2023-08-28T15:41:19.393Z,3.53
2023-08-28T15:43:46.652Z,4.03
2023-08-28T15:46:14.034Z,1.52
2023-08-28T15:48:42.513Z,2.90
2023-08-28T15:51:09.800Z,2.22
2023-08-28T15:53:37.197Z,3.35
2023-08-28T15:56:04.548Z,3.83
2023-08-28T15:58:31.953Z,5.97
2023-08-28T16:01:01.967Z,5.35
2023-08-28T16:03:30.504Z,4.13
2023-08-28T16:05:58.190Z,4.05
2023-08-28T16:08:25.570Z,4.15
2023-08-28T16:10:52.960Z,1.88
2023-08-28T16:13:20.413Z,2.15
2023-08-28T16:15:48.654Z,5.20
2023-08-28T16:18:16.186Z,2.08
2023-08-28T16:20:44.158Z,4.25
2023-08-28T16:23:13.468Z,2.00
2023-08-28T16:25:42.363Z,2.20
2023-08-28T16:28:10.418Z,2.33
2023-08-28T16:30:37.823Z,3.50
2023-08-28T16:33:05.593Z,3.75
2023-08-28T16:35:33.305Z,1.87
2023-08-28T16:38:01.355Z,2.22
2023-08-28T16:40:30.213Z,2.50
2023-08-28T16:42:59.356Z,1.52
2023-08-28T16:45:26.688Z,4.00
2023-08-28T16:47:54.045Z,1.65
2023-08-28T16:50:21.377Z,2.03
2023-08-28T16:52:48.760Z,7.20
2023-08-28T16:55:16.094Z,1.38
2023-08-28T16:57:43.436Z,2.30
2023-08-28T17:00:13.046Z,3.55
2023-08-28T17:02:41.892Z,1.27
2023-08-28T17:05:09.381Z,1.88
2023-08-28T17:07:36.644Z,3.63
2023-08-28T17:10:04.717Z,3.95
2023-08-28T17:12:33.227Z,1.90
2023-08-28T17:15:00.514Z,2.95
2023-08-28T17:17:27.971Z,3.05
2023-08-28T17:19:55.366Z,2.67
2023-08-28T17:22:23.282Z,2.28
2023-08-28T17:24:52.248Z,3.50
2023-08-28T17:29:47.645Z,3.90
2023-08-28T17:32:15.184Z,2.30
2023-08-28T17:34:43.417Z,2.65
2023-08-28T17:37:10.782Z,3.08
2023-08-28T17:39:38.927Z,2.30
2023-08-28T17:42:09.923Z,1.25
2023-08-28T17:44:37.265Z,3.33
2023-08-28T17:47:04.733Z,2.05
2023-08-28T17:49:32.103Z,2.28
2023-08-28T17:51:59.441Z,3.80
2023-08-28T17:54:27.602Z,3.88
2023-08-28T17:56:54.968Z,4.28
2023-08-28T17:59:22.294Z,1.83
2023-08-28T18:01:49.779Z,2.78
2023-08-28T18:04:17.193Z,1.40
2023-08-28T18:06:46.540Z,2.38
2023-08-28T18:09:14.027Z,3.33
2023-08-28T18:11:46.912Z,2.25
2023-08-28T18:14:14.829Z,3.20
2023-08-28T18:16:42.370Z,1.98
2023-08-28T18:19:09.634Z,2.67
2023-08-28T18:21:38.955Z,2.72
2023-08-28T18:24:08.230Z,7.10
2023-08-28T18:26:35.540Z,2.03
2023-08-28T18:29:03.841Z,2.92
2023-08-28T18:31:31.182Z,2.15
2023-08-28T18:33:58.876Z,4.32
2023-08-28T18:36:26.873Z,2.22
2023-08-28T18:38:54.184Z,3.58
2023-08-28T18:41:22.837Z,4.20
2023-08-28T18:43:50.162Z,3.25
2023-08-28T18:46:17.588Z,2.40
2023-08-28T18:48:45.113Z,6.68
2023-08-28T18:51:12.387Z,4.78
2023-08-28T18:53:39.867Z,4.45
2023-08-28T18:56:07.157Z,2.58
2023-08-28T18:58:34.510Z,3.70
2023-08-28T19:01:01.993Z,3.28
2023-08-28T19:03:29.383Z,3.08
2023-08-28T19:05:56.810Z,2.67
2023-08-28T19:08:24.152Z,2.58
2023-08-28T19:10:51.576Z,5.45
2023-08-28T19:13:19.800Z,4.32
2023-08-28T19:15:50.246Z,1.42
2023-08-28T19:18:18.198Z,2.05
2023-08-28T19:21:01.062Z,2.28
2023-08-28T19:23:29.776Z,2.08
2023-08-28T19:25:58.419Z,3.13
2023-08-28T19:28:26.705Z,3.40
2023-08-28T19:30:54.946Z,2.47
2023-08-28T19:33:22.322Z,2.45
2023-08-28T19:35:50.184Z,4.22
2023-08-28T19:38:17.544Z,4.80
2023-08-28T19:40:44.904Z,3.53
2023-08-28T19:43:12.255Z,5.43
2023-08-28T19:45:39.659Z,3.47
2023-08-28T19:48:07.702Z,3.83
2023-08-28T19:50:35.358Z,5.28
2023-08-28T19:53:05.051Z,3.78
2023-08-28T19:55:35.784Z,2.90
2023-08-28T19:58:04.259Z,3.95
2023-08-28T20:00:32.013Z,3.80
2023-08-28T20:03:00.006Z,2.60
2023-08-28T20:05:27.404Z,4.03
2023-08-28T20:07:54.730Z,3.55
2023-08-28T20:10:22.145Z,3.50
2023-08-28T20:12:49.572Z,4.55
2023-08-28T20:15:17.991Z,6.00
2023-08-28T20:17:45.365Z,4.43
2023-08-28T20:20:14.070Z,4.43
2023-08-28T20:22:42.912Z,5.80
2023-08-28T20:25:10.659Z,5.20
2023-08-28T20:27:38.597Z,4.03
2023-08-28T20:30:09.146Z,4.00
2023-08-28T20:32:36.549Z,6.80
2023-08-28T20:35:05.976Z,3.30
2023-08-28T20:37:34.288Z,2.67
2023-08-28T20:40:01.627Z,3.05
2023-08-28T20:42:28.943Z,2.85
2023-08-28T20:44:58.911Z,3.67
2023-08-28T20:47:33.614Z,4.43
2023-08-28T20:50:01.038Z,4.32
2023-08-28T20:52:28.399Z,7.05
2023-08-28T20:54:55.638Z,4.97
2023-08-28T20:57:22.955Z,4.88
2023-08-28T20:59:50.220Z,5.32
2023-08-28T21:02:17.517Z,7.68
2023-08-28T21:04:44.791Z,5.30
2023-08-28T21:07:12.497Z,5.72
2023-08-28T21:09:39.943Z,3.90
2023-08-28T21:12:07.540Z,5.47
2023-08-28T21:14:34.837Z,4.63
2023-08-28T21:17:02.136Z,3.95
2023-08-28T21:19:29.956Z,7.70
2023-08-28T21:21:59.691Z,4.07
2023-08-28T21:24:29.536Z,5.38
2023-08-28T21:26:56.875Z,6.47
2023-08-28T21:29:24.290Z,6.75
2023-08-28T21:31:51.711Z,7.07
2023-08-28T21:34:18.981Z,5.10
2023-08-28T21:36:46.256Z,5.82
2023-08-28T21:39:13.800Z,10.35
2023-08-28T21:41:41.232Z,7.47
2023-08-28T21:44:09.364Z,4.78
2023-08-28T21:46:37.234Z,5.83
2023-08-28T21:49:22.840Z,5.00
2023-08-28T21:52:08.576Z,6.53
2023-08-28T21:54:54.379Z,3.70
2023-08-28T21:57:40.615Z,4.40
2023-08-28T22:00:26.814Z,4.47
2023-08-28T22:03:13.402Z,6.15
2023-08-28T22:06:00.337Z,4.78
2023-08-28T22:08:28.001Z,4.25
2023-08-28T22:11:20.806Z,5.43
2023-08-28T22:13:56.958Z,7.15
2023-08-28T22:16:24.427Z,6.07
2023-08-28T22:18:51.800Z,6.18
2023-08-28T22:21:19.122Z,4.95
2023-08-28T22:23:46.441Z,7.10
2023-08-28T22:26:15.951Z,6.53
2023-08-28T22:28:43.407Z,6.43
2023-08-28T22:31:10.882Z,5.85
2023-08-28T22:33:38.308Z,5.57
2023-08-28T22:36:05.749Z,10.23
2023-08-28T22:38:33.038Z,8.20
2023-08-28T22:41:02.513Z,9.30
2023-08-28T22:43:31.172Z,4.93
2023-08-28T22:45:58.497Z,5.40
2023-08-28T22:48:25.818Z,7.15
2023-08-28T22:50:53.175Z,5.78
2023-08-28T22:53:20.635Z,7.18
2023-08-28T22:55:48.141Z,4.68
2023-08-28T22:58:15.742Z,7.38
2023-08-28T23:00:43.337Z,4.05
2023-08-28T23:03:10.887Z,6.60
2023-08-28T23:05:47.514Z,4.55
2023-08-28T23:08:15.122Z,5.63
2023-08-28T23:10:42.733Z,6.57
2023-08-28T23:13:10.049Z,6.97
2023-08-28T23:15:37.987Z,5.40
2023-08-28T23:18:06.383Z,13.02
2023-08-28T23:20:35.185Z,10.43
2023-08-28T23:23:02.550Z,4.45
2023-08-28T23:25:29.888Z,5.22
2023-08-28T23:27:58.712Z,4.90
2023-08-28T23:30:26.033Z,9.35
2023-08-28T23:32:53.523Z,5.13
2023-08-28T23:35:21.742Z,6.85
2023-08-28T23:37:49.481Z,5.80
2023-08-28T23:40:16.808Z,7.20
2023-08-28T23:42:44.106Z,7.65
2023-08-28T23:45:11.940Z,5.07
2023-08-28T23:47:39.336Z,5.95
2023-08-28T23:50:07.251Z,8.00
2023-08-28T23:52:34.665Z,5.60
2023-08-28T23:55:01.998Z,6.38
2023-08-28T23:57:29.533Z,6.88
2023-08-28T23:59:56.833Z,5.18
